Terminal Aerodrome Forecast
Issued by NWS

Home | Current Version | Previous Version | Text Only | Print | Product List | Glossary On
Versions: 1 2 3 4 5 6 7 8 9 10 11 12 13 14 15 16 17 18 19 20 21
000
FTUS42 KTBW 021400 AAA
TAFRSW
TAF AMD
KRSW 021405Z 0214/0312 09007KT P6SM SCT025
      TEMPO 0214/0215 5SM BR VV005
     FM022000 07008KT P6SM SCT040
     FM030100 VRB05KT P6SM FEW040
     FM030800 07004KT 3SM BR BKN015=

USA.gov is the U.S. government's official web portal to all federal, state and local government web resources and services.